首页
METAR-TAF:

METAR-TAF

机场 :

直布羅陀機場

直布罗陀, 直布罗陀

纬度: 36-09N, 经度: 005-21W, 海拔: 5米

当前天气观测

该预报发布于1小时和19分钟前的22:50 UTC
风速21节,风向
温度 17°C
湿度 94%
气压 1009 hPa
能見度: 8000

METAR: LXGB 172250Z AUTO 09021KT 8000 // BKN011/// BKN150/// 17/16 Q1009

时间: 01:09 (00:09 UTC)

预报

该预报发布于10小时和13分钟前的13:56 UTC
预报有效从17日的 15点(UTC)到 17日的 23点(UTC)
风速15节,风向
能見度: 9000
散云层高于900英尺
多云层高于1300英尺
成为
从 17日的 15点(UTC)到 17日的 18点(UTC)
能見度: 6000
轻雾
短暂存在
从 17日的 20点(UTC)到 17日的 23点(UTC)
散云层高于600英尺
多云层高于900英尺

TAF: LXGB 171356Z 1715/1723 09015KT 9000 HZ SCT009 BKN013 BECMG 1715/1718 6000 BR TEMPO 1720/1723 SCT006 BKN009

超过4000个机场的气象观测和天气预报(METAR&TAF报告)。

可查询的气象台以黄色和红色小点在地图上表示。

将鼠标移到小点上方,可查看气象台名称。

然后点击查看天气观测和预报。

如需切换地图:点击带黑十字的绿色按钮放大地图;点击带横线的绿色按钮缩小地图;或者点击绿色箭头查看邻近地区的地图。


METAR-TAF: